createdAt,value
2018-12-18T00:01:51.032Z,98533.00
2018-12-18T00:04:18.644Z,98538.67
2018-12-18T00:06:46.249Z,98528.98
2018-12-18T00:09:13.917Z,98529.27
2018-12-18T00:11:41.526Z,98532.19
2018-12-18T00:14:09.396Z,98533.62
2018-12-18T00:16:37.018Z,98528.78
2018-12-18T00:19:04.701Z,98524.86
2018-12-18T00:21:32.324Z,98526.48
2018-12-18T00:24:00.060Z,98518.72
2018-12-18T00:26:27.693Z,98509.70
2018-12-18T00:28:55.302Z,98519.58
2018-12-18T00:31:23.004Z,98512.62
2018-12-18T00:33:50.609Z,98518.28
2018-12-18T00:36:18.216Z,98523.59
2018-12-18T00:38:45.832Z,98514.97
2018-12-18T00:41:13.452Z,98520.92
2018-12-18T00:43:41.138Z,98520.14
2018-12-18T00:46:08.789Z,98520.44
2018-12-18T00:48:36.390Z,98519.09
2018-12-18T00:51:03.989Z,98520.44
2018-12-18T00:53:31.597Z,98521.25
2018-12-18T00:55:59.199Z,98523.84
2018-12-18T00:58:26.833Z,98523.32
2018-12-18T01:00:54.477Z,98522.59
2018-12-18T01:03:22.093Z,98519.05
2018-12-18T01:05:49.700Z,98523.36
2018-12-18T01:08:17.347Z,98528.98
2018-12-18T01:10:44.956Z,98523.31
2018-12-18T01:13:12.595Z,98526.86
2018-12-18T01:15:40.207Z,98530.52
2018-12-18T01:18:07.861Z,98529.98
2018-12-18T01:20:35.466Z,98531.91
2018-12-18T01:23:03.093Z,98530.61
2018-12-18T01:25:30.724Z,98528.45
2018-12-18T01:27:58.413Z,98527.06
2018-12-18T01:30:26.025Z,98526.28
2018-12-18T01:32:53.793Z,98519.58
2018-12-18T01:35:21.418Z,98524.38
2018-12-18T01:37:49.032Z,98522.27
2018-12-18T01:40:16.667Z,98524.09
2018-12-18T01:42:44.306Z,98526.28
2018-12-18T01:45:11.937Z,98520.64
2018-12-18T01:47:39.553Z,98515.07
2018-12-18T01:50:07.194Z,98522.55
2018-12-18T01:52:34.811Z,98516.12
2018-12-18T01:55:02.624Z,98517.75
2018-12-18T01:57:30.290Z,98524.46
2018-12-18T01:59:57.884Z,98518.52
2018-12-18T02:02:25.506Z,98526.02
2018-12-18T02:04:53.163Z,98528.98
2018-12-18T02:07:20.847Z,98524.66
2018-12-18T02:09:48.492Z,98514.78
2018-12-18T02:12:16.153Z,98515.12
2018-12-18T02:14:43.759Z,98519.30
2018-12-18T02:17:11.384Z,98513.73
2018-12-18T02:19:39.064Z,98233.22
2018-12-18T02:22:06.736Z,98512.09
2018-12-18T02:24:34.382Z,98514.02
2018-12-18T02:27:02.015Z,98513.63
2018-12-18T02:29:29.638Z,98514.73
2018-12-18T02:31:57.258Z,98513.67
2018-12-18T02:34:24.889Z,98506.14
2018-12-18T02:36:52.501Z,98514.20
2018-12-18T02:39:20.188Z,98516.03
2018-12-18T02:41:47.820Z,98513.72
2018-12-18T02:44:15.473Z,98508.34
2018-12-18T02:46:43.105Z,98509.64
2018-12-18T02:49:10.709Z,98507.25
2018-12-18T02:51:38.412Z,98503.80
2018-12-18T02:54:06.053Z,98499.19
2018-12-18T02:56:33.798Z,98500.05
2018-12-18T02:59:01.487Z,98491.94
2018-12-18T03:01:29.105Z,98490.36
2018-12-18T03:03:56.793Z,98491.33
2018-12-18T03:06:24.404Z,98487.62
2018-12-18T03:08:51.996Z,98485.82
2018-12-18T03:11:20.628Z,98481.77
2018-12-18T03:13:48.604Z,98487.16
2018-12-18T03:16:16.305Z,98480.45
2018-12-18T03:18:43.973Z,98480.44
2018-12-18T03:21:11.650Z,98473.15
2018-12-18T03:23:39.332Z,98477.13
2018-12-18T03:26:07.019Z,98473.95
2018-12-18T03:28:34.647Z,98478.37
2018-12-18T03:31:02.257Z,98476.80
2018-12-18T03:33:29.995Z,98476.87
2018-12-18T03:35:57.612Z,98471.41
2018-12-18T03:38:25.340Z,98471.13
2018-12-18T03:40:53.017Z,98476.03
2018-12-18T03:43:20.662Z,98471.52
2018-12-18T03:45:48.272Z,98471.80
2018-12-18T03:48:15.935Z,98478.14
2018-12-18T03:50:43.684Z,98482.20
2018-12-18T03:53:11.388Z,98484.13
2018-12-18T03:55:39.020Z,98478.71
2018-12-18T03:58:06.664Z,98486.67
2018-12-18T04:00:34.287Z,98488.06
2018-12-18T04:03:02.013Z,98476.60
2018-12-18T04:05:29.668Z,98472.28
2018-12-18T04:07:57.340Z,98469.02
2018-12-18T04:10:24.981Z,98475.45
2018-12-18T04:12:52.689Z,98473.05
2018-12-18T04:15:20.366Z,98475.20
2018-12-18T04:17:48.053Z,98474.97
2018-12-18T04:20:15.900Z,98475.25
2018-12-18T04:22:43.503Z,98469.94
2018-12-18T04:25:11.137Z,98463.27
2018-12-18T04:27:38.756Z,98460.58
2018-12-18T04:30:07.036Z,98465.80
2018-12-18T04:32:34.825Z,98464.70
2018-12-18T04:35:02.510Z,98470.27
2018-12-18T04:37:30.450Z,98462.53
2018-12-18T04:39:58.243Z,98463.49
2018-12-18T04:42:26.032Z,98455.67
2018-12-18T04:44:53.716Z,98444.13
2018-12-18T04:47:21.395Z,98447.95
2018-12-18T04:49:49.061Z,98450.88
2018-12-18T04:52:16.750Z,98447.33
2018-12-18T04:54:44.482Z,98448.48
2018-12-18T04:57:12.152Z,98445.80
2018-12-18T04:59:40.101Z,98450.22
2018-12-18T05:02:07.710Z,98447.67
2018-12-18T05:04:35.329Z,98444.50
2018-12-18T05:07:03.074Z,98448.44
2018-12-18T05:09:30.717Z,98449.92
2018-12-18T05:11:58.321Z,98452.80
2018-12-18T05:14:25.937Z,98453.72
2018-12-18T05:16:53.535Z,98459.85
2018-12-18T05:19:21.210Z,98459.33
2018-12-18T05:21:48.848Z,98470.21
2018-12-18T05:24:16.517Z,98477.55
2018-12-18T05:26:44.180Z,98466.28
2018-12-18T05:29:11.769Z,98455.10
2018-12-18T05:31:39.457Z,98470.84
2018-12-18T05:34:07.103Z,98472.46
2018-12-18T05:36:34.759Z,98468.34
2018-12-18T05:39:02.609Z,98475.30
2018-12-18T05:41:30.237Z,98474.25
2018-12-18T05:43:57.961Z,98471.56
2018-12-18T05:46:25.638Z,98473.19
2018-12-18T05:48:53.248Z,98472.42
2018-12-18T05:51:20.876Z,98477.55
2018-12-18T05:53:48.519Z,98478.28
2018-12-18T05:56:16.096Z,98481.83
2018-12-18T05:58:43.720Z,98480.23
2018-12-18T06:01:11.432Z,98478.37
2018-12-18T06:03:39.090Z,98481.53
2018-12-18T06:06:06.717Z,98479.47
2018-12-18T06:08:34.332Z,98485.05
2018-12-18T06:11:01.970Z,98478.13
2018-12-18T06:13:29.611Z,98478.13
2018-12-18T06:15:57.231Z,98487.98
2018-12-18T06:18:24.863Z,98480.15
2018-12-18T06:20:52.489Z,98478.28
2018-12-18T06:23:20.072Z,98479.42
2018-12-18T06:25:47.714Z,98480.77
2018-12-18T06:28:15.366Z,98483.50
2018-12-18T06:30:42.992Z,98476.98
2018-12-18T06:33:10.584Z,98483.45
2018-12-18T06:35:38.268Z,98479.71
2018-12-18T06:38:05.914Z,98478.33
2018-12-18T06:40:33.495Z,98480.44
2018-12-18T06:43:01.136Z,98489.03
2018-12-18T06:45:28.752Z,98485.52
2018-12-18T06:47:56.360Z,98486.39
2018-12-18T06:50:23.974Z,98487.53
2018-12-18T06:52:51.704Z,98479.47
2018-12-18T06:55:19.287Z,98480.72
2018-12-18T06:57:52.909Z,98480.91
2018-12-18T07:00:20.659Z,98489.31
2018-12-18T07:02:48.307Z,98482.30
2018-12-18T07:05:16.960Z,98480.68
2018-12-18T07:07:45.006Z,98486.86
2018-12-18T07:10:12.735Z,98484.41
2018-12-18T07:12:40.504Z,98484.95
2018-12-18T07:15:08.208Z,98476.98
2018-12-18T07:17:35.878Z,98496.23
2018-12-18T07:20:03.633Z,98487.44
2018-12-18T07:22:31.372Z,98494.88
2018-12-18T07:24:59.228Z,98496.50
2018-12-18T07:27:26.955Z,98495.69
2018-12-18T07:29:54.649Z,98503.80
2018-12-18T07:32:22.410Z,98494.29
2018-12-18T07:34:50.270Z,98491.37
2018-12-18T07:37:18.030Z,98493.23
2018-12-18T07:39:45.914Z,98498.75
2018-12-18T07:42:13.634Z,98497.93
2018-12-18T07:44:41.430Z,98499.45
2018-12-18T07:47:09.097Z,98497.93
2018-12-18T07:49:37.201Z,98492.75
2018-12-18T07:52:04.914Z,98495.42
2018-12-18T07:54:32.671Z,98501.88
2018-12-18T07:57:00.307Z,98505.05
2018-12-18T07:59:28.028Z,98497.03
2018-12-18T08:01:55.767Z,98497.55
2018-12-18T08:04:23.457Z,98502.73
2018-12-18T08:06:51.317Z,98492.48
2018-12-18T08:09:19.143Z,98496.23
2018-12-18T08:11:46.926Z,98494.12
2018-12-18T08:14:14.665Z,98493.00
2018-12-18T08:16:42.370Z,98491.66
2018-12-18T08:19:10.112Z,98498.95
2018-12-18T08:21:38.205Z,98497.90
2018-12-18T08:24:05.910Z,98501.59
2018-12-18T08:26:33.736Z,98499.91
2018-12-18T08:29:01.574Z,98496.41
2018-12-18T08:31:29.515Z,98418.48
2018-12-18T08:33:57.406Z,98490.98
2018-12-18T08:36:25.123Z,98490.66
2018-12-18T08:38:52.936Z,98483.74
2018-12-18T08:41:20.668Z,98482.41
2018-12-18T08:43:48.491Z,98486.62
2018-12-18T08:46:16.232Z,98480.39
2018-12-18T08:48:43.953Z,98481.25
2018-12-18T08:51:11.767Z,98478.80
2018-12-18T08:53:39.491Z,98471.03
2018-12-18T08:56:07.168Z,98466.95
2018-12-18T08:58:34.846Z,98471.13
2018-12-18T09:01:02.524Z,98468.45
2018-12-18T09:03:30.272Z,98473.24
2018-12-18T09:05:57.965Z,98475.44
2018-12-18T09:08:25.677Z,98482.17
2018-12-18T09:10:53.507Z,98477.27
2018-12-18T09:13:21.174Z,98467.19
2018-12-18T09:15:54.247Z,98480.83
2018-12-18T09:18:22.043Z,98482.20
2018-12-18T09:20:50.012Z,98478.70
2018-12-18T09:23:17.823Z,98479.91
2018-12-18T09:25:45.689Z,98470.55
2018-12-18T09:28:13.492Z,98469.50
2018-12-18T09:30:42.701Z,98471.37
2018-12-18T09:33:10.913Z,98464.94
2018-12-18T09:35:38.756Z,98472.17
2018-12-18T09:38:11.831Z,98474.05
2018-12-18T09:40:44.874Z,98471.17
2018-12-18T09:43:18.025Z,98474.05
2018-12-18T09:45:47.972Z,98478.27
2018-12-18T09:48:15.798Z,98478.89
2018-12-18T09:50:43.594Z,98467.25
2018-12-18T09:53:11.417Z,98467.29
2018-12-18T09:55:39.313Z,98468.87
2018-12-18T09:58:11.583Z,98464.27
2018-12-18T10:00:39.442Z,98452.18
2018-12-18T10:03:07.715Z,98450.59
2018-12-18T10:05:35.560Z,98446.80
2018-12-18T10:08:08.823Z,98453.81
2018-12-18T10:10:36.625Z,98454.10
2018-12-18T10:13:04.495Z,98461.09
2018-12-18T10:15:32.260Z,98452.22
2018-12-18T10:18:00.127Z,98448.42
2018-12-18T10:20:27.968Z,98447.91
2018-12-18T10:22:55.773Z,98448.73
2018-12-18T10:25:23.545Z,98449.77
2018-12-18T10:27:51.384Z,98447.62
2018-12-18T10:30:19.212Z,98440.90
2018-12-18T10:32:47.049Z,98439.84
2018-12-18T10:35:14.841Z,98434.72
2018-12-18T10:37:42.650Z,98436.81
2018-12-18T10:40:10.726Z,98425.48
2018-12-18T10:42:38.505Z,98425.67
2018-12-18T10:45:13.576Z,98432.20
2018-12-18T10:47:37.928Z,98423.14
2018-12-18T10:50:05.821Z,98420.45
2018-12-18T10:52:33.728Z,98416.37
2018-12-18T10:55:01.561Z,98416.09
2018-12-18T10:57:29.388Z,98412.06
2018-12-18T10:59:57.197Z,98405.97
2018-12-18T11:02:25.057Z,98400.82
2018-12-18T11:04:52.863Z,98397.73
2018-12-18T11:07:20.751Z,98390.08
2018-12-18T11:09:48.560Z,98380.40
2018-12-18T11:12:20.529Z,98366.54
2018-12-18T11:14:48.406Z,98369.92
2018-12-18T11:17:16.226Z,98362.45
2018-12-18T11:19:44.078Z,98358.61
2018-12-18T11:22:11.905Z,98340.02
2018-12-18T11:24:39.740Z,98324.53
2018-12-18T11:27:07.596Z,98325.13
2018-12-18T11:29:35.455Z,98319.28
2018-12-18T11:32:03.302Z,98319.52
2018-12-18T11:34:31.216Z,98315.84
2018-12-18T11:36:59.052Z,98317.36
2018-12-18T11:39:26.922Z,98313.05
2018-12-18T11:41:54.759Z,98309.31
2018-12-18T11:44:22.591Z,98294.52
2018-12-18T11:46:50.465Z,98288.05
2018-12-18T11:49:18.342Z,98286.75
2018-12-18T11:51:46.175Z,98281.33
2018-12-18T11:54:14.039Z,98272.03
2018-12-18T11:56:41.968Z,98271.12
2018-12-18T11:59:09.763Z,98259.00
2018-12-18T12:01:37.592Z,98262.28
2018-12-18T12:04:05.586Z,98263.91
2018-12-18T12:06:33.381Z,98266.95
2018-12-18T12:09:01.114Z,98259.67
2018-12-18T12:11:28.851Z,98252.66
2018-12-18T12:13:56.622Z,98253.11
2018-12-18T12:16:24.401Z,98247.85
2018-12-18T12:18:52.254Z,98246.40
2018-12-18T12:21:19.992Z,98246.75
2018-12-18T12:23:47.786Z,98238.45
2018-12-18T12:26:20.795Z,98219.31
2018-12-18T12:28:48.533Z,98238.17
2018-12-18T12:31:16.299Z,98237.64
2018-12-18T12:33:44.078Z,98237.00
2018-12-18T12:36:11.909Z,98239.09
2018-12-18T12:38:39.703Z,98238.39
2018-12-18T12:41:07.508Z,98239.47
2018-12-18T12:43:35.251Z,98236.59
2018-12-18T12:46:03.201Z,98230.04
2018-12-18T12:48:36.295Z,98050.64
2018-12-18T12:51:04.043Z,98216.09
2018-12-18T12:53:31.827Z,98213.11
2018-12-18T12:55:59.653Z,98210.37
2018-12-18T12:58:27.443Z,98203.02
2018-12-18T13:00:55.298Z,98207.69
2018-12-18T13:03:23.076Z,98205.77
2018-12-18T13:05:50.965Z,98194.79
2018-12-18T13:08:18.714Z,98189.63
2018-12-18T13:10:46.495Z,98177.20
2018-12-18T13:13:14.241Z,98176.20
2018-12-18T13:15:41.921Z,98180.42
2018-12-18T13:18:09.682Z,98161.38
2018-12-18T13:20:37.478Z,98166.23
2018-12-18T13:23:05.237Z,98159.33
2018-12-18T13:25:32.929Z,98152.86
2018-12-18T13:28:00.709Z,98139.23
2018-12-18T13:30:28.498Z,98133.27
2018-12-18T13:32:56.223Z,98127.14
2018-12-18T13:35:23.975Z,98127.05
2018-12-18T13:37:51.780Z,98121.43
2018-12-18T13:40:19.540Z,98120.54
2018-12-18T13:42:47.411Z,98123.84
2018-12-18T13:45:15.127Z,98115.25
2018-12-18T13:47:42.805Z,98108.00
2018-12-18T13:50:10.514Z,98101.31
2018-12-18T13:52:38.220Z,98090.19
2018-12-18T13:55:05.900Z,98096.21
2018-12-18T13:57:33.684Z,98093.27
2018-12-18T14:00:01.433Z,98002.73
2018-12-18T14:02:29.143Z,98089.95
2018-12-18T14:04:56.872Z,98087.80
2018-12-18T14:07:24.656Z,98091.23
2018-12-18T14:09:52.409Z,98083.53
2018-12-18T14:12:20.116Z,98084.99
2018-12-18T14:14:47.802Z,98079.32
2018-12-18T14:17:15.574Z,98081.77
2018-12-18T14:19:43.287Z,98077.98
2018-12-18T14:22:11.233Z,98069.50
2018-12-18T14:24:38.957Z,98071.02
2018-12-18T14:27:06.674Z,98073.47
2018-12-18T14:29:34.464Z,98071.56
2018-12-18T14:32:02.149Z,98075.73
2018-12-18T14:34:29.918Z,98073.23
2018-12-18T14:36:57.793Z,98069.20
2018-12-18T14:39:25.649Z,98079.44
2018-12-18T14:41:53.496Z,98068.34
2018-12-18T14:44:21.414Z,98079.30
2018-12-18T14:46:49.181Z,98079.47
2018-12-18T14:49:16.949Z,98081.02
2018-12-18T14:51:44.641Z,98071.92
2018-12-18T14:54:12.471Z,98070.28
2018-12-18T14:56:40.644Z,98070.48
2018-12-18T14:59:08.410Z,98073.77
2018-12-18T15:01:36.581Z,98072.66
2018-12-18T15:04:04.454Z,98075.05
2018-12-18T15:06:32.844Z,98070.39
2018-12-18T15:09:01.042Z,98074.06
2018-12-18T15:11:28.966Z,98063.33
2018-12-18T15:13:57.127Z,98061.47
2018-12-18T15:16:24.968Z,98062.48
2018-12-18T15:18:52.735Z,98050.13
2018-12-18T15:21:20.509Z,98048.31
2018-12-18T15:23:48.673Z,98046.10
2018-12-18T15:26:16.679Z,98049.17
2018-12-18T15:28:44.682Z,98049.59
2018-12-18T15:31:12.779Z,98028.85
2018-12-18T15:33:40.555Z,98054.75
2018-12-18T15:36:08.437Z,98046.38
2018-12-18T15:38:36.478Z,98051.00
2018-12-18T15:41:04.434Z,98053.86
2018-12-18T15:43:32.292Z,98056.19
2018-12-18T15:46:00.273Z,98056.75
2018-12-18T15:48:28.252Z,98054.43
2018-12-18T15:50:56.261Z,98045.95
2018-12-18T15:53:24.045Z,98041.92
2018-12-18T15:55:52.847Z,98047.00
2018-12-18T15:58:20.568Z,98035.42
2018-12-18T16:00:48.344Z,98059.65
2018-12-18T16:03:17.106Z,98050.79
2018-12-18T16:05:45.002Z,98049.95
2018-12-18T16:08:12.706Z,98047.12
2018-12-18T16:10:40.494Z,98040.41
2018-12-18T16:13:08.278Z,98036.82
2018-12-18T16:15:36.113Z,98041.33
2018-12-18T16:18:03.908Z,98041.33
2018-12-18T16:20:31.629Z,98045.12
2018-12-18T16:22:59.515Z,98050.19
2018-12-18T16:25:27.313Z,98048.42
2018-12-18T16:27:55.111Z,98040.94
2018-12-18T16:30:22.987Z,98040.19
2018-12-18T16:32:50.773Z,98045.50
2018-12-18T16:35:18.538Z,98043.48
2018-12-18T16:37:46.377Z,98039.33
2018-12-18T16:40:14.166Z,98041.98
2018-12-18T16:42:42.015Z,98037.14
2018-12-18T16:45:09.848Z,98035.05
2018-12-18T16:47:37.628Z,98031.59
2018-12-18T16:50:05.461Z,98034.90
2018-12-18T16:52:33.186Z,98031.53
2018-12-18T16:55:00.963Z,97940.88
2018-12-18T16:57:28.809Z,97930.53
2018-12-18T16:59:56.574Z,98024.99
2018-12-18T17:02:24.393Z,98021.53
2018-12-18T17:04:52.440Z,98015.72
2018-12-18T17:07:20.281Z,98015.26
2018-12-18T17:09:48.106Z,98017.80
2018-12-18T17:12:15.924Z,98021.83
2018-12-18T17:14:43.707Z,98012.91
2018-12-18T17:17:11.663Z,98009.47
2018-12-18T17:19:39.612Z,98005.71
2018-12-18T17:22:07.407Z,98008.34
2018-12-18T17:24:35.174Z,97996.18
2018-12-18T17:27:02.982Z,98004.00
2018-12-18T17:29:30.798Z,97998.42
2018-12-18T17:31:58.521Z,97998.25
2018-12-18T17:34:26.337Z,97990.29
2018-12-18T17:36:54.149Z,97981.09
2018-12-18T17:39:21.933Z,97977.87
2018-12-18T17:41:49.725Z,97977.00
2018-12-18T17:44:17.481Z,97978.11
2018-12-18T17:46:45.354Z,97989.95
2018-12-18T17:49:13.101Z,97990.81
2018-12-18T17:51:40.928Z,97994.22
2018-12-18T17:54:08.633Z,97989.89
2018-12-18T17:56:36.569Z,97995.33
2018-12-18T17:59:04.295Z,97988.72
2018-12-18T18:01:32.118Z,97994.70
2018-12-18T18:03:59.858Z,97990.94
2018-12-18T18:06:27.644Z,97987.38
2018-12-18T18:08:55.442Z,97986.61
2018-12-18T18:11:23.171Z,97991.98
2018-12-18T18:13:51.005Z,97984.66
2018-12-18T18:16:18.829Z,97978.28
2018-12-18T18:18:46.613Z,97980.06
2018-12-18T18:21:14.358Z,97986.91
2018-12-18T18:23:42.225Z,97983.65
2018-12-18T18:26:11.428Z,97977.98
2018-12-18T18:28:39.205Z,97979.02
2018-12-18T18:31:07.062Z,97976.03
2018-12-18T18:33:34.862Z,97986.48
2018-12-18T18:36:02.759Z,97990.64
2018-12-18T18:38:30.457Z,97990.88
2018-12-18T18:40:58.205Z,97987.27
2018-12-18T18:43:25.946Z,97989.89
2018-12-18T18:45:53.695Z,97979.42
2018-12-18T18:48:21.474Z,97973.15
2018-12-18T18:50:49.207Z,97982.27
2018-12-18T18:53:16.965Z,97984.83
2018-12-18T18:55:44.675Z,97980.13
2018-12-18T18:58:12.437Z,97979.92
2018-12-18T19:00:40.743Z,97981.91
2018-12-18T19:03:08.487Z,97975.56
2018-12-18T19:05:36.241Z,97969.75
2018-12-18T19:08:03.926Z,97964.44
2018-12-18T19:10:31.578Z,97957.45
2018-12-18T19:12:59.235Z,97960.41
2018-12-18T19:15:26.893Z,97959.70
2018-12-18T19:17:54.601Z,97956.41
2018-12-18T19:20:22.323Z,97952.82
2018-12-18T19:22:49.996Z,97944.59
2018-12-18T19:25:17.705Z,97944.59
2018-12-18T19:27:45.418Z,97939.45
2018-12-18T19:30:13.147Z,97931.39
2018-12-18T19:32:40.856Z,97935.49
2018-12-18T19:35:08.713Z,97925.79
2018-12-18T19:37:36.434Z,97920.22
2018-12-18T19:40:04.177Z,97911.25
2018-12-18T19:42:31.915Z,97909.13
2018-12-18T19:44:59.637Z,97908.12
2018-12-18T19:47:27.235Z,97908.87
2018-12-18T19:49:54.932Z,97920.41
2018-12-18T19:52:22.744Z,97928.27
2018-12-18T19:54:50.597Z,97928.20
2018-12-18T19:57:18.480Z,97919.14
2018-12-18T19:59:46.229Z,97905.51
2018-12-18T20:02:13.850Z,97912.83
2018-12-18T20:04:41.651Z,97909.70
2018-12-18T20:07:10.574Z,97911.25
2018-12-18T20:09:38.318Z,97906.55
2018-12-18T20:12:06.057Z,97905.81
2018-12-18T20:14:34.106Z,97912.66
2018-12-18T20:17:01.951Z,97914.74
2018-12-18T20:19:29.704Z,97901.84
2018-12-18T20:21:57.370Z,97902.52
2018-12-18T20:24:25.095Z,97909.17
2018-12-18T20:26:52.849Z,97912.97
2018-12-18T20:29:20.601Z,97907.78
2018-12-18T20:31:48.347Z,97899.08
2018-12-18T20:34:16.081Z,97900.30
2018-12-18T20:36:45.267Z,97894.31
2018-12-18T20:39:13.164Z,97887.83
2018-12-18T20:41:40.781Z,97892.36
2018-12-18T20:44:08.541Z,97899.17
2018-12-18T20:46:36.333Z,97896.55
2018-12-18T20:49:03.920Z,97892.70
2018-12-18T20:51:31.533Z,97892.59
2018-12-18T20:53:59.139Z,97901.16
2018-12-18T20:56:26.880Z,97894.34
2018-12-18T20:58:54.542Z,97890.16
2018-12-18T21:01:22.315Z,97890.39
2018-12-18T21:03:50.158Z,97891.73
2018-12-18T21:06:17.926Z,97884.20
2018-12-18T21:08:45.706Z,97871.14
2018-12-18T21:11:13.612Z,97865.05
2018-12-18T21:13:41.416Z,97860.20
2018-12-18T21:16:09.125Z,97865.70
2018-12-18T21:18:36.991Z,97862.89
2018-12-18T21:21:04.726Z,97852.64
2018-12-18T21:23:32.886Z,97832.90
2018-12-18T21:26:00.709Z,97822.88
2018-12-18T21:28:28.657Z,97816.81
2018-12-18T21:30:56.512Z,97812.66
2018-12-18T21:33:24.737Z,97811.51
2018-12-18T21:35:52.899Z,97810.78
2018-12-18T21:38:20.842Z,97803.18
2018-12-18T21:40:48.774Z,97802.87
2018-12-18T21:43:16.541Z,97792.75
2018-12-18T21:45:44.265Z,97791.22
2018-12-18T21:48:12.163Z,97799.94
2018-12-18T21:50:39.967Z,97810.48
2018-12-18T21:53:07.857Z,97826.70
2018-12-18T21:55:36.101Z,97834.35
2018-12-18T21:58:04.017Z,97842.53
2018-12-18T22:00:31.863Z,97836.14
2018-12-18T22:02:59.667Z,97817.31
2018-12-18T22:05:27.498Z,97803.52
2018-12-18T22:07:55.391Z,97768.41
2018-12-18T22:10:23.199Z,97791.82
2018-12-18T22:12:51.046Z,97776.41
2018-12-18T22:15:18.898Z,97782.02
2018-12-18T22:17:46.700Z,97788.66
2018-12-18T22:20:14.602Z,97771.17
2018-12-18T22:22:42.436Z,97760.11
2018-12-18T22:25:10.353Z,97749.74
2018-12-18T22:27:38.189Z,97747.77
2018-12-18T22:30:07.197Z,97739.78
2018-12-18T22:32:35.056Z,97728.05
2018-12-18T22:35:02.881Z,97727.28
2018-12-18T22:37:30.676Z,97715.13
2018-12-18T22:39:58.569Z,97710.42
2018-12-18T22:42:26.404Z,97707.50
2018-12-18T22:44:54.206Z,97712.08
2018-12-18T22:47:21.988Z,97713.06
2018-12-18T22:49:49.804Z,97731.98
2018-12-18T22:52:17.764Z,97731.33
2018-12-18T22:54:45.564Z,97722.30
2018-12-18T22:57:13.208Z,97711.23
2018-12-18T22:59:40.996Z,97714.17
2018-12-18T23:02:13.906Z,97719.61
2018-12-18T23:04:41.999Z,97715.27
2018-12-18T23:07:09.604Z,97712.48
2018-12-18T23:09:37.219Z,97717.92
2018-12-18T23:12:04.928Z,97729.13
2018-12-18T23:14:32.525Z,97731.59
2018-12-18T23:17:00.129Z,97735.42
2018-12-18T23:19:27.794Z,97735.22
2018-12-18T23:21:55.423Z,97733.79
2018-12-18T23:24:23.046Z,97728.92
2018-12-18T23:26:50.685Z,97724.42
2018-12-18T23:29:18.284Z,97723.38
2018-12-18T23:31:45.925Z,97723.30
2018-12-18T23:34:13.538Z,97728.95
2018-12-18T23:36:41.159Z,97722.76
2018-12-18T23:39:08.791Z,97714.27
2018-12-18T23:41:36.722Z,97709.67
2018-12-18T23:44:04.589Z,97708.95
2018-12-18T23:46:32.185Z,97699.84
2018-12-18T23:48:59.814Z,97701.50
2018-12-18T23:51:27.450Z,97689.39
2018-12-18T23:53:55.076Z,97691.44
2018-12-18T23:56:22.853Z,97684.14
2018-12-18T23:58:50.476Z,97678.45
